Pagrindinis puslapis
METAR-TAF:

METAR-TAF

Oro uostai :

Helena, Montana, Jungtinės Amerikos Valstijos

platuma: 46-36-20N, ilguma: 111-57-49W, Aukštis: 1180 m

Dabartinis oras

Ataskaita buvo paskelbta 19 minutes, ne 17:53 UTC
Vėjas 4 kt iš Rytų/Pietryčių
Temperatūra 7°C
Drėgmė 66%
Slėgis 1023 hPa
Matomumas: 16.1 km
Giedras dangus

METAR: KHLN 271753Z 11004KT 10SM CLR 07/01 A3022 RMK AO2 SLP256 T00670006 10067 20033 51009

Laikas: 11:12 (18:12 UTC)

Prognozė

Ataskaita buvo paskelbta 33 minutes, ne 17:39 UTC
Prognozė galioja nuo 27 metu 18 UTC su 28 metu 18 UTC
Vėjas 6 kt nuo kintamojo kryptimis
Matomumas: 10 km
Išsisklaidę debesys ne aukštis 5000 ft
Su prošvaistėmis ne aukštis 12000 ft
Nuo 28 metu 1700 UTC
Vėjas 11 kt iš Pietvakarių su gūsio iki 20 kt
Matomumas: 10 km
Išsisklaidę debesys ne aukštis 6000 ft
Su prošvaistėmis ne aukštis 12000 ft

TAF: KHLN 271739Z 2718/2818 VRB06KT P6SM SCT050 BKN120 FM281700 23011G20KT P6SM SCT060 BKN120

Orai ataskaitas ir orų prognozės (METAR, TAF).

turimą stotys yra geltonos ir raudonos taškus žemėlapyje.

Perkelti pele per norėdami pamatyti stoties vardą.

Tada spustelėkite, norėdami matyti oro stebėjimo ir prognozės.

Norėdami pakeisti žemėlapį: spustelėkite ant žalios mygtukų su juodo kryžiaus žemyn,; žalią mygtuką su brūkšneliu, jei norite nutolinti; arba žalių rodyklių gretimoms žemėlapius.


METAR-TAF: